Time;durP1;ratioP1;P1;durP2;ratioP2;P2;SDS_P1;SDS_P2;PMS_P1;PMS_P2;Temp;Humidity;BMP_temperature;BMP_pressure;BME280_temperature;BME280_humidity;BME280_pressure;Samples;Min_cycle;Max_cycle;Signal;HPM_P1;HPM_P2
2022/04/07 06:09:55;;;;;;;;;28.00;25.50;;;;;17.52;51.14;99123.25;5106587;27;45817;-71
2022/04/07 06:12:20;;;;;;;;;25.25;24.50;;;;;17.65;51.33;99126.25;5104377;27;45563;-72
2022/04/07 06:14:45;;;;;;;;;28.25;25.25;;;;;17.87;51.25;99133.78;5104427;27;45561;-71
2022/04/07 06:17:11;;;;;;;;;29.25;24.25;;;;;18.15;51.20;99133.44;5096129;27;46901;-72
2022/04/07 06:19:36;;;;;;;;;27.50;26.00;;;;;18.44;51.13;99132.81;5097924;27;48673;-69
2022/04/07 06:22:05;;;;;;;;;31.75;27.50;;;;;18.76;50.62;99121.28;5100479;27;56007;-71
2022/04/07 06:24:30;;;;;;;;;29.75;26.50;;;;;19.09;49.74;99132.69;5096911;27;45507;-70
2022/04/07 06:26:55;;;;;;;;;24.00;23.50;;;;;19.41;49.10;99132.63;5100737;27;45826;-71
2022/04/07 06:29:21;;;;;;;;;25.75;22.25;;;;;19.69;48.90;99129.38;5105423;27;49272;-72
2022/04/07 06:31:46;;;;;;;;;20.00;20.00;;;;;19.95;48.04;99130.81;5097056;27;50758;-71
2022/04/07 06:34:11;;;;;;;;;31.00;26.25;;;;;20.20;47.36;99124.38;5107451;27;45729;-71
2022/04/07 06:36:36;;;;;;;;;27.75;25.25;;;;;20.44;46.85;99117.84;5101719;27;55925;-71
2022/04/07 06:39:03;;;;;;;;;28.25;26.50;;;;;20.64;46.67;99111.91;5105802;27;46002;-71
2022/04/07 06:41:28;;;;;;;;;27.25;25.00;;;;;20.86;46.05;99112.81;5102205;27;45484;-72
2022/04/07 06:43:54;;;;;;;;;33.00;26.75;;;;;21.02;46.29;99119.84;5104894;27;45464;-71
2022/04/07 06:46:19;;;;;;;;;21.75;21.75;;;;;21.18;45.27;99113.31;5101086;27;46837;-71
2022/04/07 06:48:44;;;;;;;;;27.50;26.00;;;;;21.33;44.97;99123.22;5103780;27;46882;-71
2022/04/07 06:51:09;;;;;;;;;22.00;20.75;;;;;21.41;44.94;99097.97;5107271;27;45574;-71
2022/04/07 06:53:35;;;;;;;;;21.25;21.25;;;;;21.57;44.27;99111.19;5107667;27;56788;-69
2022/04/07 06:56:00;;;;;;;;;25.00;23.75;;;;;21.69;44.44;99102.56;5106330;27;45433;-70
2022/04/07 06:58:26;;;;;;;;;22.75;21.50;;;;;21.77;44.15;99107.00;5096424;27;46231;-71
2022/04/07 07:00:51;;;;;;;;;24.00;22.75;;;;;21.84;43.58;99102.50;5102867;27;45468;-71
2022/04/07 07:03:17;;;;;;;;;24.00;22.75;;;;;21.91;43.27;99094.44;5099203;27;45753;-71
2022/04/07 07:05:42;;;;;;;;;23.25;22.50;;;;;21.98;43.59;99101.56;5107498;27;45447;-71
2022/04/07 07:08:18;;;;;;;;;23.00;22.00;;;;;22.07;43.29;99098.72;5101007;27;46596;-71
2022/04/07 07:10:46;;;;;;;;;23.25;23.00;;;;;22.11;42.60;99092.69;5095525;27;45844;-71
2022/04/07 07:13:13;;;;;;;;;23.50;22.75;;;;;22.16;42.43;99097.50;5105408;27;45411;-71
2022/04/07 07:15:39;;;;;;;;;24.00;21.00;;;;;22.22;42.24;99090.47;5103936;27;45492;-70
2022/04/07 07:18:04;;;;;;;;;22.00;21.25;;;;;22.26;42.29;99089.03;5104126;27;45639;-71
2022/04/07 07:20:30;;;;;;;;;24.50;24.50;;;;;22.30;42.64;99090.31;5091998;27;45481;-71
2022/04/07 07:22:55;;;;;;;;;24.50;23.00;;;;;22.35;42.20;99093.22;5087740;27;45872;-71
2022/04/07 07:25:20;;;;;;;;;21.00;20.25;;;;;22.38;42.01;99100.09;5089555;27;45466;-70
2022/04/07 07:27:47;;;;;;;;;21.25;20.50;;;;;22.40;42.03;99100.72;5091720;27;57108;-70
2022/04/07 07:30:15;;;;;;;;;20.75;19.25;;;;;22.43;41.53;99086.00;5090708;27;46934;-70
2022/04/07 07:32:42;;;;;;;;;20.50;20.00;;;;;22.46;41.67;99080.16;5088699;27;45538;-70
2022/04/07 07:35:09;;;;;;;;;24.75;21.00;;;;;22.49;41.82;99086.00;5089028;27;45796;-71
2022/04/07 07:37:35;;;;;;;;;17.50;17.25;;;;;22.53;41.74;99096.44;5090317;27;45526;-71
2022/04/07 07:40:08;;;;;;;;;18.00;16.75;;;;;22.54;41.43;99071.09;5082359;27;45849;-71
2022/04/07 07:42:36;;;;;;;;;23.00;20.75;;;;;22.55;41.17;99078.16;5084170;27;46875;-71
2022/04/07 07:45:02;;;;;;;;;17.00;17.00;;;;;22.56;41.22;99093.34;5092115;27;45854;-71
2022/04/07 07:47:27;;;;;;;;;20.00;19.00;;;;;22.59;41.06;99093.78;5091531;27;46807;-71
2022/04/07 07:49:53;;;;;;;;;19.75;17.00;;;;;22.61;41.65;99077.34;5080836;27;46136;-70
2022/04/07 07:52:18;;;;;;;;;21.25;18.75;;;;;22.63;41.50;99064.47;5081936;27;45479;-70
2022/04/07 07:54:43;;;;;;;;;19.75;19.25;;;;;22.65;41.42;99062.41;5082224;27;46337;-69
2022/04/07 07:57:08;;;;;;;;;20.75;19.50;;;;;22.66;41.20;99055.09;5074909;27;56725;-69
2022/04/07 07:59:34;;;;;;;;;18.50;16.75;;;;;22.69;41.24;99060.13;5085294;27;45688;-71
2022/04/07 08:01:59;;;;;;;;;15.67;12.67;;;;;22.72;41.26;99065.13;5081744;27;45647;-71
2022/04/07 08:04:25;;;;;;;;;9.00;9.00;;;;;22.76;41.00;99058.25;5082149;27;45512;-70
2022/04/07 08:06:50;;;;;;;;;5.33;5.00;;;;;22.78;41.17;99058.91;5082222;27;45992;-70
2022/04/07 08:09:15;;;;;;;;;8.67;4.00;;;;;22.78;41.50;99056.19;5077109;27;45510;-70
2022/04/07 08:11:41;;;;;;;;;6.67;5.33;;;;;22.75;41.25;99043.06;5083687;27;47118;-70
2022/04/07 08:14:07;;;;;;;;;5.67;5.67;;;;;22.72;41.42;99047.00;5082598;27;45523;-70
2022/04/07 08:16:33;;;;;;;;;14.00;10.67;;;;;22.65;41.17;99043.47;5081723;27;46387;-74
2022/04/07 08:18:58;;;;;;;;;15.00;10.00;;;;;22.55;41.37;99043.84;5081804;27;45532;-74
2022/04/07 08:21:24;;;;;;;;;16.33;10.67;;;;;22.54;41.44;99054.84;5078447;27;46371;-71
2022/04/07 08:23:49;;;;;;;;;17.67;12.00;;;;;22.55;41.46;99043.00;5084342;27;45533;-73
2022/04/07 08:26:15;;;;;;;;;11.33;9.00;;;;;22.58;41.84;99046.16;5082123;27;64757;-73
2022/04/07 08:28:41;;;;;;;;;10.00;9.67;;;;;22.62;41.89;99052.81;5082146;27;46908;-72
2022/04/07 08:31:06;;;;;;;;;9.00;9.00;;;;;22.66;41.50;99042.44;5079160;27;45516;-72
2022/04/07 08:33:31;;;;;;;;;14.33;12.00;;;;;22.72;41.44;99051.59;5089606;27;51550;-71
2022/04/07 08:35:57;;;;;;;;;19.33;14.00;;;;;22.74;41.35;99050.38;5084800;27;60984;-73
2022/04/07 08:38:22;;;;;;;;;16.67;10.67;;;;;22.74;41.85;99044.94;5081689;27;45630;-72
2022/04/07 08:41:11;;;;;;;;;15.00;11.33;;;;;22.79;41.85;99035.38;5054454;27;45534;-73
2022/04/07 08:43:39;;;;;;;;;16.00;13.33;;;;;22.83;41.43;99048.28;5036577;28;45533;-73
2022/04/07 08:46:09;;;;;;;;;15.00;13.67;;;;;22.89;41.41;99044.75;5047519;28;46544;-73
2022/04/07 08:48:42;;;;;;;;;16.67;13.67;;;;;22.94;41.53;99032.50;5051221;28;45422;-73
2022/04/07 08:51:09;;;;;;;;;16.67;13.33;;;;;23.03;41.57;99037.50;5052961;28;45496;-73
2022/04/07 08:53:36;;;;;;;;;19.33;12.67;;;;;23.07;41.63;99023.56;5050769;28;46108;-73
2022/04/07 08:56:03;;;;;;;;;15.00;12.67;;;;;23.11;41.67;99044.59;5051838;28;46340;-72
2022/04/07 08:58:29;;;;;;;;;11.00;10.00;;;;;23.16;41.43;99027.72;5048439;28;46350;-72
2022/04/07 09:00:55;;;;;;;;;14.67;13.33;;;;;23.21;41.85;99048.75;5049295;28;45406;-72
2022/04/07 09:03:20;;;;;;;;;17.67;11.33;;;;;23.24;41.63;99034.78;5052300;28;45447;-71
2022/04/07 09:05:54;;;;;;;;;21.67;14.00;;;;;23.27;41.76;99064.16;5054746;28;45476;-71
2022/04/07 09:08:19;;;;;;;;;14.00;8.00;;;;;23.30;41.39;99039.41;5044348;28;45453;-71
2022/04/07 09:10:52;;;;;;;;;12.33;10.33;;;;;23.30;41.71;99042.91;5045865;28;45752;-72
2022/04/07 09:13:18;;;;;;;;;14.33;9.00;;;;;23.35;41.82;99049.63;5043320;28;53499;-72
2022/04/07 09:15:45;;;;;;;;;17.67;12.33;;;;;23.37;42.14;99042.09;5046090;28;46145;-72
2022/04/07 09:18:10;;;;;;;;;17.67;14.00;;;;;23.36;41.91;99045.88;5051899;28;45579;-72
2022/04/07 09:20:42;;;;;;;;;11.00;9.67;;;;;23.40;42.16;99047.97;5050031;28;46061;-72
2022/04/07 09:23:11;;;;;;;;;17.00;11.00;;;;;23.43;41.87;99050.22;5047873;28;45471;-72
2022/04/07 09:25:47;;;;;;;;;11.33;10.00;;;;;23.46;42.10;99053.59;5052605;28;45653;-72
2022/04/07 09:28:23;;;;;;;;;13.33;9.67;;;;;23.48;42.41;99030.66;5045807;28;45529;-72
2022/04/07 09:30:49;;;;;;;;;7.33;7.00;;;;;23.54;40.94;99037.13;5043940;28;45758;-69
2022/04/07 09:33:22;;;;;;;;;11.00;9.00;;;;;23.53;40.73;99036.28;5056811;28;45506;-68
2022/04/07 09:36:07;;;;;;;;;6.67;6.33;;;;;23.51;40.79;99034.81;5053229;28;45529;-68
2022/04/07 09:38:35;;;;;;;;;4.00;2.33;;;;;23.50;40.86;99031.28;5050272;28;45594;-68
2022/04/07 09:41:08;;;;;;;;;2.33;2.33;;;;;23.50;40.76;99036.69;5069804;27;46325;-68
2022/04/07 09:43:54;;;;;;;;;4.00;4.00;;;;;23.49;41.13;99032.31;5066538;27;45549;-69
2022/04/07 09:46:21;;;;;;;;;3.00;3.00;;;;;23.46;40.56;99031.91;5067606;27;45923;-68
2022/04/07 09:49:09;;;;;;;;;2.00;2.00;;;;;23.42;40.66;99034.22;5065077;27;46505;-68
2022/04/07 09:51:50;;;;;;;;;6.00;4.00;;;;;23.40;40.95;99047.97;5057716;27;46822;-69
2022/04/07 09:54:18;;;;;;;;;5.00;2.00;;;;;23.37;40.76;99047.53;5053145;28;45470;-69
2022/04/07 09:56:46;;;;;;;;;2.67;2.67;;;;;23.37;40.87;99053.78;5053451;28;45534;-69
2022/04/07 09:59:14;;;;;;;;;1.67;1.00;;;;;23.36;40.96;99048.56;5035216;28;45510;-68
2022/04/07 10:01:39;;;;;;;;;4.00;3.00;;;;;23.35;40.80;99057.75;5051714;28;45909;-69
2022/04/07 10:04:06;;;;;;;;;3.33;2.67;;;;;23.33;40.81;99066.06;5062008;28;45854;-68
2022/04/07 10:06:33;;;;;;;;;5.33;4.00;;;;;23.31;40.90;99070.84;5048151;28;45467;-68
2022/04/07 10:09:02;;;;;;;;;4.33;3.00;;;;;23.27;40.81;99043.34;5056267;28;45503;-69
2022/04/07 10:11:32;;;;;;;;;2.00;2.00;;;;;23.28;40.91;99063.97;5063020;28;46167;-69
2022/04/07 10:13:58;;;;;;;;;3.67;1.33;;;;;23.27;41.10;99043.34;5054838;28;45510;-69
2022/04/07 10:16:25;;;;;;;;;2.00;2.00;;;;;23.25;41.00;99058.94;5053650;28;47330;-68
2022/04/07 10:18:59;;;;;;;;;5.00;2.00;;;;;23.25;41.15;99055.41;5050907;28;45795;-69
2022/04/07 10:21:28;;;;;;;;;7.67;6.67;;;;;23.22;40.66;99062.06;5056276;28;47201;-68
2022/04/07 10:24:37;;;;;;;;;6.33;4.67;;;;;23.21;40.46;99065.00;5066573;28;45602;-68
2022/04/07 10:27:08;;;;;;;;;5.00;4.67;;;;;23.19;40.79;99067.06;5057876;28;45843;-69
2022/04/07 10:29:34;;;;;;;;;7.00;6.67;;;;;23.16;40.58;99062.91;5052594;28;45373;-70
2022/04/07 10:32:09;;;;;;;;;6.00;6.00;;;;;23.15;40.67;99063.94;5051134;28;47362;-70
2022/04/07 10:34:34;;;;;;;;;6.33;5.00;;;;;23.04;41.04;99043.75;5052095;28;45474;-70
2022/04/07 10:37:06;;;;;;;;;7.33;4.67;;;;;23.16;40.85;99081.84;5045794;28;45670;-70
2022/04/07 10:39:34;;;;;;;;;14.67;6.33;;;;;23.15;40.60;99067.50;5050431;28;45471;-70
2022/04/07 10:42:00;;;;;;;;;9.67;9.33;;;;;23.19;40.88;99067.06;5048781;28;46881;-70
2022/04/07 10:44:27;;;;;;;;;10.67;7.00;;;;;23.21;41.08;99108.31;5053143;28;45403;-70
2022/04/07 10:47:08;;;;;;;;;9.33;7.00;;;;;23.22;41.54;99164.91;5049804;28;45502;-70
2022/04/07 10:49:34;;;;;;;;;9.67;7.67;;;;;23.23;41.28;99144.09;5047884;28;45493;-71
2022/04/07 10:52:05;;;;;;;;;9.33;7.67;;;;;23.25;41.23;99133.91;5047870;28;46644;-72
2022/04/07 10:54:30;;;;;;;;;9.67;8.00;;;;;23.25;41.32;99150.13;5057431;28;45383;-71
2022/04/07 10:56:59;;;;;;;;;8.67;6.00;;;;;23.28;41.15;99150.59;5061160;28;45478;-71
2022/04/07 10:59:27;;;;;;;;;8.33;6.00;;;;;23.27;41.43;99167.88;5049984;28;45792;-72
2022/04/07 11:02:05;;;;;;;;;9.00;9.00;;;;;23.29;41.14;99189.28;5053636;28;46115;-70
2022/04/07 11:04:32;;;;;;;;;13.00;7.33;;;;;23.30;41.61;99180.97;5049267;28;45366;-71
2022/04/07 11:09:58;;;;;;;;;12.33;11.00;;;;;23.35;41.63;99180.41;5044149;28;45322;-71
2022/04/07 11:12:29;;;;;;;;;9.00;8.00;;;;;23.40;41.60;99185.19;5052688;28;47274;-71
2022/04/07 11:15:00;;;;;;;;;11.67;9.67;;;;;23.43;41.35;99190.22;5056437;28;45548;-71
2022/04/07 11:17:32;;;;;;;;;10.67;9.33;;;;;23.45;41.43;99190.81;5052220;28;45500;-70
2022/04/07 11:20:05;;;;;;;;;13.00;11.67;;;;;23.50;40.80;99196.44;5051585;28;45468;-70
2022/04/07 11:22:55;;;;;;;;;11.33;9.33;;;;;23.55;40.99;99187.72;5052805;28;47457;-71
2022/04/07 11:25:24;;;;;;;;;11.00;9.33;;;;;23.55;41.52;99198.56;5054028;28;46942;-72
2022/04/07 11:28:11;;;;;;;;;14.33;13.00;;;;;23.56;41.14;99197.50;5051664;28;45763;-72
2022/04/07 11:30:49;;;;;;;;;14.00;12.00;;;;;23.58;41.25;99200.84;5044651;28;45520;-71
2022/04/07 11:33:18;;;;;;;;;13.67;13.67;;;;;23.61;41.28;99199.59;5050953;28;45561;-71
2022/04/07 11:35:44;;;;;;;;;15.00;13.00;;;;;23.63;41.38;99209.16;5054772;28;45509;-71
2022/04/07 11:38:09;;;;;;;;;14.67;12.67;;;;;23.65;41.16;99198.97;5057888;28;45696;-71
2022/04/07 11:40:35;;;;;;;;;15.67;12.67;;;;;23.67;41.28;99225.88;5050314;28;45490;-70
2022/04/07 11:43:02;;;;;;;;;15.00;10.33;;;;;23.69;41.63;99216.50;5051446;28;45499;-72
2022/04/07 11:45:33;;;;;;;;;13.67;11.33;;;;;23.72;41.21;99208.97;5045843;28;45303;-71
2022/04/07 11:47:58;;;;;;;;;20.67;12.33;;;;;23.75;41.61;99211.28;5051219;28;45434;-70
2022/04/07 11:50:24;;;;;;;;;24.00;16.00;;;;;23.76;41.50;99221.91;5049800;28;45387;-71
2022/04/07 11:52:50;;;;;;;;;18.00;14.00;;;;;23.79;41.39;99229.63;5049788;28;47347;-71
2022/04/07 11:55:29;;;;;;;;;19.67;14.67;;;;;24.01;41.08;99247.56;5053571;28;45819;-72
2022/04/07 11:57:59;;;;;;;;;18.67;14.00;;;;;24.24;41.05;99225.50;5032687;28;45474;-71
2022/04/07 12:00:32;;;;;;;;;20.00;13.00;;;;;24.44;40.84;99219.22;5060806;28;45358;-72
2022/04/07 12:03:01;;;;;;;;;16.00;13.67;;;;;24.59;40.75;99230.66;5048984;28;45556;-71
2022/04/07 12:05:30;;;;;;;;;13.67;12.67;;;;;24.71;40.38;99238.13;5051718;28;45563;-70
2022/04/07 12:07:56;;;;;;;;;19.33;12.67;;;;;24.81;40.35;99252.06;5048779;28;45334;-73
2022/04/07 12:10:22;;;;;;;;;16.00;13.67;;;;;24.90;40.31;99249.16;5050879;28;45922;-72
2022/04/07 12:12:48;;;;;;;;;14.33;12.67;;;;;24.97;40.27;99261.66;5053044;28;45715;-72
2022/04/07 12:15:16;;;;;;;;;17.00;14.00;;;;;25.03;40.06;99269.97;5051592;28;45609;-73
2022/04/07 12:18:02;;;;;;;;;11.33;10.33;;;;;25.07;40.16;99263.94;5052142;28;45502;-72
2022/04/07 12:20:29;;;;;;;;;15.67;11.33;;;;;25.14;39.89;99272.03;5053750;28;45374;-71
2022/04/07 12:23:07;;;;;;;;;20.00;14.00;;;;;25.19;39.79;99271.38;5048835;28;45437;-70
2022/04/07 12:25:33;;;;;;;;;17.67;13.67;;;;;25.22;39.95;99265.53;5048361;28;45600;-70
2022/04/07 12:28:08;;;;;;;;;15.33;13.33;;;;;25.26;39.99;99283.88;5050569;28;45533;-71
2022/04/07 12:30:51;;;;;;;;;15.00;12.67;;;;;25.29;39.67;99298.91;5047503;28;45691;-70
2022/04/07 12:33:45;;;;;;;;;17.00;14.00;;;;;25.31;39.25;99285.13;5050506;28;46175;-71
2022/04/07 12:36:14;;;;;;;;;13.00;13.00;;;;;25.33;39.65;99278.44;5054187;28;45541;-70
2022/04/07 12:38:41;;;;;;;;;16.67;10.67;;;;;25.35;39.93;99289.94;5054064;28;45613;-72
2022/04/07 12:41:15;;;;;;;;;14.67;13.33;;;;;25.36;39.76;99280.72;5051103;28;45653;-72
2022/04/07 12:43:43;;;;;;;;;15.33;12.33;;;;;25.38;39.78;99289.47;5051552;28;45387;-72
2022/04/07 12:46:09;;;;;;;;;15.67;12.33;;;;;25.41;39.71;99288.22;5051027;28;45571;-72
2022/04/07 12:48:35;;;;;;;;;14.67;13.00;;;;;25.42;39.51;99289.88;5054258;28;51737;-71
2022/04/07 12:51:21;;;;;;;;;13.33;10.67;;;;;25.45;39.63;99289.44;5044424;28;45463;-71
2022/04/07 12:53:46;;;;;;;;;9.33;9.00;;;;;25.47;39.89;99303.63;5050101;28;46919;-71
2022/04/07 12:56:27;;;;;;;;;18.67;13.00;;;;;25.50;39.40;99294.25;5044769;28;46031;-70
2022/04/07 12:59:13;;;;;;;;;11.33;11.33;;;;;25.53;39.60;99308.22;5047667;28;46021;-71
2022/04/07 13:01:39;;;;;;;;;14.33;10.33;;;;;25.56;39.41;99304.25;5046940;28;45352;-70
2022/04/07 13:04:08;;;;;;;;;8.00;7.33;;;;;25.60;39.34;99305.50;5056325;28;45594;-70
2022/04/07 13:06:34;;;;;;;;;12.33;9.00;;;;;25.62;39.65;99316.97;5052098;28;45450;-72
2022/04/07 13:09:00;;;;;;;;;17.00;12.33;;;;;25.64;39.57;99322.19;5041277;28;45466;-70
2022/04/07 13:11:32;;;;;;;;;8.33;8.33;;;;;25.65;37.83;99319.25;5052221;28;46909;-68
2022/04/07 13:13:59;;;;;;;;;7.33;7.00;;;;;25.63;36.67;99298.78;5050103;28;45568;-68
2022/04/07 13:16:25;;;;;;;;;8.00;7.00;;;;;25.61;36.60;99319.91;5049088;28;45851;-68
2022/04/07 13:18:50;;;;;;;;;6.00;6.00;;;;;25.53;36.64;99318.22;5049803;28;45502;-68
2022/04/07 13:21:16;;;;;;;;;10.00;6.67;;;;;25.46;36.41;99301.16;5049396;28;45432;-68
2022/04/07 13:23:42;;;;;;;;;6.67;4.00;;;;;25.39;36.07;99315.56;5056225;28;45636;-68
2022/04/07 13:26:07;;;;;;;;;10.67;6.33;;;;;25.30;36.40;99306.00;5055263;27;45483;-68
2022/04/07 13:28:32;;;;;;;;;12.33;9.33;;;;;25.26;36.72;99321.91;5056067;28;51417;-69
2022/04/07 13:30:58;;;;;;;;;7.33;7.33;;;;;25.23;37.07;99333.22;5053652;28;45451;-69
2022/04/07 13:33:24;;;;;;;;;9.67;8.33;;;;;25.24;36.94;99353.03;5052310;28;46995;-69
2022/04/07 13:35:51;;;;;;;;;7.00;5.00;;;;;25.24;36.67;99351.16;5058091;28;45518;-68
2022/04/07 13:38:17;;;;;;;;;6.33;6.33;;;;;25.24;36.36;99334.03;5051672;28;45340;-69
2022/04/07 13:40:42;;;;;;;;;11.33;9.00;;;;;25.26;36.99;99356.38;5050338;28;45522;-71
2022/04/07 13:43:08;;;;;;;;;11.33;7.33;;;;;25.27;37.01;99341.75;5040582;28;45468;-71
2022/04/07 13:45:33;;;;;;;;;8.00;7.50;;;;;25.29;36.91;99336.13;5051341;28;45431;-70
2022/04/07 13:47:58;;;;;;;;;7.33;6.67;;;;;25.34;37.10;99342.53;5056374;28;45470;-71
2022/04/07 13:50:24;;;;;;;;;6.00;5.00;;;;;25.39;37.07;99342.72;5048710;28;45422;-71
2022/04/07 13:52:49;;;;;;;;;11.33;9.33;;;;;25.46;36.91;99356.28;5050546;28;45780;-70
2022/04/07 13:55:14;;;;;;;;;5.67;5.00;;;;;25.46;37.03;99341.91;5052713;28;45394;-71
2022/04/07 13:57:40;;;;;;;;;9.00;7.00;;;;;25.58;37.33;99355.66;5049692;28;45743;-70
2022/04/07 14:00:06;;;;;;;;;11.67;7.67;;;;;25.61;37.49;99366.09;5053604;28;45568;-69
2022/04/07 14:02:31;;;;;;;;;5.00;5.00;;;;;25.68;37.17;99355.19;5054104;28;46816;-70
2022/04/07 14:04:57;;;;;;;;;6.33;6.33;;;;;25.72;37.22;99351.00;5052546;28;54407;-69
2022/04/07 14:07:22;;;;;;;;;13.67;10.00;;;;;25.76;37.17;99354.94;5053043;28;47377;-68
2022/04/07 14:09:48;;;;;;;;;9.33;6.00;;;;;25.81;37.09;99357.00;5052102;28;45610;-68
2022/04/07 14:12:14;;;;;;;;;6.33;6.33;;;;;25.85;37.29;99372.66;5052869;28;46053;-67
2022/04/07 14:14:39;;;;;;;;;7.00;7.00;;;;;25.89;36.64;99376.63;5046647;28;45687;-67
2022/04/07 14:17:05;;;;;;;;;8.67;5.33;;;;;25.88;35.74;99371.41;5050953;28;45439;-67
2022/04/07 14:19:30;;;;;;;;;7.33;5.67;;;;;25.86;35.44;99362.59;5051836;28;49230;-67
2022/04/07 14:21:55;;;;;;;;;12.67;9.00;;;;;25.84;35.87;99375.59;5053275;28;45486;-68
2022/04/07 14:24:21;;;;;;;;;9.00;8.00;;;;;25.85;35.85;99366.38;5053468;28;45586;-67
2022/04/07 14:26:46;;;;;;;;;7.67;4.67;;;;;25.85;35.36;99377.25;5055238;28;45487;-67
2022/04/07 14:29:11;;;;;;;;;4.67;4.67;;;;;25.83;34.54;99376.66;5055742;28;45682;-68
2022/04/07 14:31:37;;;;;;;;;11.00;7.67;;;;;25.77;34.38;99379.19;5053509;28;45817;-68
2022/04/07 14:34:03;;;;;;;;;15.00;11.00;;;;;25.70;34.45;99380.28;5056272;28;45418;-69
2022/04/07 14:36:29;;;;;;;;;10.33;8.33;;;;;25.61;34.95;99382.38;5053310;28;45473;-70
2022/04/07 14:38:54;;;;;;;;;10.33;6.33;;;;;25.55;34.67;99397.69;5059899;28;46352;-70
2022/04/07 14:41:19;;;;;;;;;7.33;6.00;;;;;25.52;35.17;99387.19;5057478;28;45738;-71
2022/04/07 14:43:45;;;;;;;;;15.33;8.33;;;;;25.51;35.52;99397.22;5050809;28;45642;-70
2022/04/07 14:46:11;;;;;;;;;11.67;7.67;;;;;25.49;35.36;99412.06;5050951;28;45480;-71
2022/04/07 14:48:37;;;;;;;;;7.00;5.00;;;;;25.52;35.59;99406.22;5049928;28;45471;-70
2022/04/07 14:51:02;;;;;;;;;12.67;6.33;;;;;25.53;35.77;99405.16;5053032;28;46533;-70
2022/04/07 14:53:28;;;;;;;;;7.67;5.33;;;;;25.53;36.01;99421.47;5052667;28;45606;-69
2022/04/07 14:55:55;;;;;;;;;7.00;6.33;;;;;25.56;35.99;99422.94;5055331;28;46564;-69
2022/04/07 14:58:20;;;;;;;;;7.33;7.00;;;;;25.58;36.01;99429.00;5055273;28;45608;-70
2022/04/07 15:00:49;;;;;;;;;5.00;4.67;;;;;25.59;35.90;99412.47;5054931;28;45649;-70
2022/04/07 15:03:15;;;;;;;;;8.00;4.33;;;;;25.61;35.75;99434.00;5054798;28;45367;-69
2022/04/07 15:05:40;;;;;;;;;4.67;4.33;;;;;25.62;36.05;99420.22;5055847;28;45550;-69
2022/04/07 15:08:06;;;;;;;;;9.00;7.67;;;;;25.64;36.34;99439.00;5054031;28;46116;-69
2022/04/07 15:10:32;;;;;;;;;10.33;6.33;;;;;25.68;35.79;99444.84;5052892;28;45422;-70
2022/04/07 15:12:57;;;;;;;;;7.67;6.00;;;;;25.69;36.13;99454.66;5054383;28;45408;-68
2022/04/07 15:15:23;;;;;;;;;8.00;5.00;;;;;25.69;36.29;99439.22;5052134;28;48751;-68
2022/04/07 15:17:49;;;;;;;;;7.00;5.67;;;;;25.71;36.14;99441.72;5041088;28;45700;-68
2022/04/07 15:20:15;;;;;;;;;6.67;4.33;;;;;25.73;36.53;99445.03;5051939;28;45494;-68
2022/04/07 15:22:42;;;;;;;;;10.00;7.33;;;;;25.74;36.35;99446.69;5044242;28;45478;-70
2022/04/07 15:25:08;;;;;;;;;10.33;7.00;;;;;25.75;36.45;99448.41;5050721;28;45826;-68
2022/04/07 15:27:34;;;;;;;;;6.67;6.67;;;;;25.76;36.57;99459.03;5056206;28;45598;-68
2022/04/07 15:29:59;;;;;;;;;6.00;5.67;;;;;25.77;36.58;99468.03;5066132;28;46173;-68
2022/04/07 15:32:26;;;;;;;;;9.67;6.00;;;;;25.76;36.55;99455.50;5049969;28;48617;-68
2022/04/07 15:34:54;;;;;;;;;9.00;5.33;;;;;25.76;36.18;99472.59;5043613;28;45496;-68
2022/04/07 15:37:21;;;;;;;;;7.33;4.33;;;;;25.73;36.57;99475.78;5056320;28;45348;-69
2022/04/07 15:39:47;;;;;;;;;5.33;4.67;;;;;25.72;36.52;99484.13;5056850;28;45557;-72
2022/04/07 15:42:12;;;;;;;;;5.00;4.00;;;;;25.72;36.05;99490.41;5053582;28;45536;-70
2022/04/07 15:44:38;;;;;;;;;6.00;4.33;;;;;25.70;36.27;99506.09;5054220;28;45436;-71
2022/04/07 15:47:03;;;;;;;;;11.00;5.67;;;;;25.65;35.70;99505.88;5052733;28;45364;-70
2022/04/07 15:49:29;;;;;;;;;4.33;4.33;;;;;25.62;36.04;99509.88;5048889;28;45407;-70
2022/04/07 15:51:54;;;;;;;;;4.67;4.67;;;;;25.58;36.02;99524.91;5057776;28;45519;-70
2022/04/07 15:54:19;;;;;;;;;6.00;4.33;;;;;25.53;35.79;99509.25;5054471;28;50295;-70
2022/04/07 15:56:45;;;;;;;;;7.67;3.33;;;;;25.51;35.92;99519.47;5057607;28;45507;-70
2022/04/07 15:59:10;;;;;;;;;4.00;4.00;;;;;25.49;36.07;99537.03;5049601;28;45522;-70
2022/04/07 16:01:36;;;;;;;;;4.00;3.00;;;;;25.44;36.23;99534.09;5056447;28;45569;-70
2022/04/07 16:04:02;;;;;;;;;4.33;3.33;;;;;25.41;35.99;99532.66;5063925;28;45576;-70
2022/04/07 16:06:29;;;;;;;;;7.33;4.00;;;;;25.42;36.27;99547.06;5051389;28;45460;-70
2022/04/07 16:08:54;;;;;;;;;3.67;3.00;;;;;25.42;36.23;99552.50;5053675;28;46469;-70
2022/04/07 16:11:20;;;;;;;;;4.00;4.00;;;;;25.44;36.26;99558.53;5020592;28;45559;-70
2022/04/07 16:13:46;;;;;;;;;1.00;1.00;;;;;25.45;36.20;99562.94;5045613;28;45556;-70
2022/04/07 16:16:12;;;;;;;;;3.67;3.33;;;;;25.46;36.14;99564.63;5057681;28;45645;-70
2022/04/07 16:18:40;;;;;;;;;4.33;3.33;;;;;25.46;36.13;99567.34;5063867;28;46111;-71
2022/04/07 16:21:06;;;;;;;;;4.00;2.00;;;;;25.47;36.06;99566.28;5043506;28;55239;-70
2022/04/07 16:23:33;;;;;;;;;9.67;6.00;;;;;25.47;36.26;99564.38;5063359;28;45630;-71
2022/04/07 16:25:58;;;;;;;;;3.00;3.00;;;;;25.48;36.21;99582.38;5051325;28;46138;-70
2022/04/07 16:28:23;;;;;;;;;6.00;6.00;;;;;25.49;36.19;99575.91;5050554;28;45455;-68
2022/04/07 16:30:49;;;;;;;;;9.00;6.33;;;;;25.49;36.41;99583.19;5057451;28;54662;-70
2022/04/07 16:33:14;;;;;;;;;3.00;3.00;;;;;25.47;36.03;99594.25;5054381;28;45327;-69
2022/04/07 16:35:46;;;;;;;;;3.00;2.00;;;;;25.47;36.40;99583.41;5064208;28;45547;-69
2022/04/07 16:38:12;;;;;;;;;7.00;4.00;;;;;25.50;36.59;99595.75;5051564;28;45395;-69
2022/04/07 16:40:37;;;;;;;;;5.67;4.33;;;;;25.52;36.58;99607.25;5051334;28;45435;-70
2022/04/07 16:43:02;;;;;;;;;7.67;2.33;;;;;25.55;36.59;99605.97;5051601;28;48883;-69
2022/04/07 16:45:29;;;;;;;;;7.33;4.00;;;;;25.58;36.63;99602.88;5059263;28;46708;-69
2022/04/07 16:47:55;;;;;;;;;3.00;2.67;;;;;25.60;36.83;99607.06;5053246;28;46201;-71
2022/04/07 16:50:20;;;;;;;;;8.00;5.00;;;;;25.61;36.81;99606.00;5050080;28;45482;-71
2022/04/07 16:52:46;;;;;;;;;5.67;4.00;;;;;25.63;36.60;99611.25;5052605;28;45392;-69
2022/04/07 16:55:12;;;;;;;;;7.33;3.33;;;;;25.66;36.44;99618.94;5047990;28;45380;-70
2022/04/07 16:57:37;;;;;;;;;4.00;4.00;;;;;25.65;36.11;99615.41;5054194;28;46066;-68
2022/04/07 17:00:06;;;;;;;;;3.00;2.00;;;;;25.68;36.23;99630.47;5053728;28;45420;-68
